Time;durP1;ratioP1;P1;durP2;ratioP2;P2;SDS_P1;SDS_P2;PMS_P1;PMS_P2;Temp;Humidity;BMP_temperature;BMP_pressure;BME280_temperature;BME280_humidity;BME280_pressure;Samples;Min_cycle;Max_cycle;Signal;HPM_P1;HPM_P2
2021/09/19 00:02:01;;;;;;;9.60;8.70;;;11.50;99.90;;;;;;5067255;28;20993;-73
2021/09/19 00:04:28;;;;;;;11.52;9.25;;;11.50;99.90;;;;;;5066839;28;20459;-74
2021/09/19 00:06:57;;;;;;;11.20;8.57;;;11.40;99.90;;;;;;5066547;28;20215;-73
2021/09/19 00:09:24;;;;;;;10.32;9.35;;;11.40;99.90;;;;;;5066858;28;20232;-73
2021/09/19 00:11:51;;;;;;;10.38;8.85;;;11.40;99.90;;;;;;5066990;28;20224;-75
2021/09/19 00:14:20;;;;;;;10.55;9.30;;;11.40;99.90;;;;;;5066930;28;20313;-74
2021/09/19 00:16:48;;;;;;;10.00;9.07;;;11.40;99.90;;;;;;5066279;28;20201;-74
2021/09/19 00:19:15;;;;;;;9.35;8.45;;;11.40;99.90;;;;;;5066714;28;20666;-74
2021/09/19 00:21:42;;;;;;;11.18;9.55;;;11.40;99.90;;;;;;5066739;28;20200;-74
2021/09/19 00:24:10;;;;;;;11.10;9.90;;;11.40;99.90;;;;;;5066951;28;20219;-74
2021/09/19 00:26:37;;;;;;;11.13;9.40;;;11.40;99.90;;;;;;5066111;28;20223;-74
2021/09/19 00:29:05;;;;;;;10.35;9.27;;;11.30;99.90;;;;;;5067031;28;20742;-73
2021/09/19 00:31:31;;;;;;;12.23;10.27;;;11.40;99.90;;;;;;5066387;28;20722;-73
2021/09/19 00:34:00;;;;;;;11.80;9.70;;;11.30;99.90;;;;;;5066961;28;20201;-74
2021/09/19 00:36:27;;;;;;;10.43;9.32;;;11.30;99.90;;;;;;5065053;28;20672;-73
2021/09/19 00:38:54;;;;;;;10.10;9.07;;;11.30;99.90;;;;;;5066966;28;20228;-74
2021/09/19 00:41:22;;;;;;;10.68;8.70;;;11.20;99.90;;;;;;5070929;28;20462;-74
2021/09/19 00:43:49;;;;;;;10.63;8.90;;;11.20;99.90;;;;;;5070792;28;20568;-74
2021/09/19 00:46:15;;;;;;;10.63;9.30;;;11.20;99.90;;;;;;5070862;28;20627;-74
2021/09/19 00:48:42;;;;;;;10.30;9.30;;;11.20;99.90;;;;;;5069925;28;20229;-74
2021/09/19 00:51:09;;;;;;;10.57;9.40;;;11.20;99.90;;;;;;5070753;28;20228;-74
2021/09/19 00:53:38;;;;;;;10.60;9.38;;;11.20;99.90;;;;;;5070626;28;20283;-74
2021/09/19 00:56:06;;;;;;;13.30;9.95;;;11.20;99.90;;;;;;5070651;28;20236;-74
2021/09/19 00:58:35;;;;;;;12.68;9.85;;;11.20;99.90;;;;;;5069680;28;20220;-74
2021/09/19 01:01:03;;;;;;;10.98;9.75;;;11.10;99.90;;;;;;5070796;28;20314;-73
2021/09/19 01:03:30;;;;;;;11.20;10.00;;;11.10;99.90;;;;;;5070346;28;20200;-74
2021/09/19 01:05:57;;;;;;;11.60;9.88;;;11.10;99.90;;;;;;5070358;28;20321;-74
2021/09/19 01:08:24;;;;;;;9.25;8.40;;;11.00;99.90;;;;;;5069810;28;20216;-74
2021/09/19 01:10:52;;;;;;;9.88;8.93;;;11.00;99.90;;;;;;5070758;28;20223;-74
2021/09/19 01:13:19;;;;;;;10.05;9.05;;;11.00;99.90;;;;;;5070791;28;20201;-74
2021/09/19 01:15:49;;;;;;;8.98;8.07;;;11.00;99.90;;;;;;5070702;28;20209;-73
2021/09/19 01:18:18;;;;;;;11.05;9.32;;;11.10;99.90;;;;;;5069419;28;20238;-74
2021/09/19 01:20:45;;;;;;;9.50;8.50;;;11.00;99.90;;;;;;5063644;28;20657;-74
2021/09/19 01:23:13;;;;;;;13.63;9.80;;;11.00;99.90;;;;;;5050643;28;20204;-74
2021/09/19 01:25:43;;;;;;;10.57;9.05;;;11.00;99.90;;;;;;5051022;28;20201;-74
2021/09/19 01:28:11;;;;;;;9.38;8.27;;;11.00;99.90;;;;;;5059756;28;20225;-75
2021/09/19 01:30:38;;;;;;;9.70;8.70;;;11.00;99.90;;;;;;5070889;28;20192;-73
2021/09/19 01:33:05;;;;;;;9.63;8.63;;;11.00;99.90;;;;;;5071012;28;20203;-75
2021/09/19 01:35:32;;;;;;;11.43;8.88;;;11.00;99.90;;;;;;5071264;28;20223;-74
2021/09/19 01:37:59;;;;;;;10.13;8.80;;;10.90;99.90;;;;;;5070631;28;20274;-74
2021/09/19 01:40:27;;;;;;;10.85;9.85;;;10.90;99.90;;;;;;5071533;28;20200;-74
2021/09/19 01:42:56;;;;;;;11.23;10.03;;;11.00;99.90;;;;;;5071564;28;20216;-74
2021/09/19 01:45:23;;;;;;;9.80;8.15;;;10.90;99.90;;;;;;5071496;28;20981;-74
2021/09/19 01:47:50;;;;;;;11.23;9.07;;;10.90;99.90;;;;;;5070470;28;20227;-74
2021/09/19 01:50:19;;;;;;;10.80;9.65;;;10.90;99.90;;;;;;5071829;28;20686;-74
2021/09/19 01:52:45;;;;;;;10.43;9.35;;;10.90;99.90;;;;;;5070778;28;20223;-74
2021/09/19 01:55:12;;;;;;;11.00;9.90;;;10.80;99.90;;;;;;5071268;28;20215;-74
2021/09/19 01:57:39;;;;;;;12.45;8.98;;;10.80;99.90;;;;;;5070492;28;20703;-74
2021/09/19 02:00:08;;;;;;;8.95;8.05;;;10.80;99.90;;;;;;5070581;28;20212;-74
2021/09/19 02:02:36;;;;;;;10.02;9.05;;;10.70;99.90;;;;;;5070080;28;20200;-74
2021/09/19 02:05:05;;;;;;;9.90;8.90;;;10.80;99.90;;;;;;5069845;28;20573;-74
2021/09/19 02:07:32;;;;;;;10.70;8.65;;;10.70;99.90;;;;;;5069663;28;20220;-73
2021/09/19 02:09:58;;;;;;;9.43;8.50;;;10.70;99.90;;;;;;5072340;28;20208;-74
2021/09/19 02:12:25;;;;;;;11.40;9.20;;;10.70;99.90;;;;;;5073952;28;20634;-74
2021/09/19 02:14:52;;;;;;;9.63;8.68;;;10.70;99.90;;;;;;5073877;28;20197;-74
2021/09/19 02:17:20;;;;;;;8.85;7.85;;;10.70;99.90;;;;;;5072970;28;20208;-73
2021/09/19 02:19:47;;;;;;;10.93;8.57;;;10.70;99.90;;;;;;5074184;28;20201;-74
2021/09/19 02:22:14;;;;;;;10.95;9.10;;;10.70;99.90;;;;;;5073159;28;20192;-74
2021/09/19 02:24:41;;;;;;;9.63;8.45;;;10.70;99.90;;;;;;5073465;28;20557;-74
2021/09/19 02:27:08;;;;;;;10.00;8.57;;;10.70;99.90;;;;;;5072977;28;20212;-75
2021/09/19 02:29:35;;;;;;;11.50;8.60;;;10.70;99.90;;;;;;5073692;28;20734;-74
2021/09/19 02:32:02;;;;;;;10.85;9.77;;;10.70;99.90;;;;;;5073333;28;20216;-75
2021/09/19 02:34:30;;;;;;;10.80;9.77;;;10.70;99.90;;;;;;5073534;28;20200;-74
2021/09/19 02:36:57;;;;;;;9.82;8.45;;;10.70;99.90;;;;;;5072871;28;20205;-74
2021/09/19 02:39:24;;;;;;;10.63;9.52;;;10.60;99.90;;;;;;5073290;28;20551;-74
2021/09/19 02:41:50;;;;;;;10.07;9.07;;;10.60;99.90;;;;;;5073556;28;20212;-74
2021/09/19 02:44:17;;;;;;;9.82;8.80;;;10.60;99.90;;;;;;5073325;28;20212;-73
2021/09/19 02:46:44;;;;;;;9.20;8.30;;;10.60;99.90;;;;;;5072842;28;20249;-75
2021/09/19 02:49:11;;;;;;;9.73;8.75;;;10.60;99.90;;;;;;5073140;28;20659;-75
2021/09/19 02:51:39;;;;;;;10.27;9.15;;;10.60;99.90;;;;;;5073240;28;20216;-74
2021/09/19 02:54:06;;;;;;;10.30;8.90;;;10.50;99.90;;;;;;5073081;28;20200;-74
2021/09/19 02:56:32;;;;;;;10.57;9.57;;;10.50;99.90;;;;;;5073222;28;20287;-75
2021/09/19 02:58:59;;;;;;;11.60;8.88;;;10.50;99.90;;;;;;5072744;28;20224;-74
2021/09/19 03:01:26;;;;;;;11.25;9.85;;;10.40;99.90;;;;;;5073331;28;20201;-74
2021/09/19 03:03:52;;;;;;;11.05;8.70;;;10.40;99.90;;;;;;5073114;28;20200;-74
2021/09/19 03:06:21;;;;;;;9.80;8.77;;;10.40;99.90;;;;;;5073026;28;20208;-74
2021/09/19 03:08:50;;;;;;;10.95;8.65;;;10.30;99.90;;;;;;5071977;28;20782;-74
2021/09/19 03:11:16;;;;;;;10.13;8.48;;;10.30;99.90;;;;;;5072801;28;20234;-74
2021/09/19 03:13:45;;;;;;;9.45;8.52;;;10.30;99.90;;;;;;5073046;28;20208;-74
2021/09/19 03:16:12;;;;;;;10.07;9.07;;;10.30;99.90;;;;;;5072733;28;20245;-74
2021/09/19 03:18:39;;;;;;;9.88;8.48;;;10.30;99.90;;;;;;5072261;28;20634;-74
2021/09/19 03:21:05;;;;;;;11.13;9.40;;;10.30;99.90;;;;;;5072474;28;20204;-74
2021/09/19 03:23:32;;;;;;;10.10;8.60;;;10.30;99.90;;;;;;5071934;28;20553;-74
2021/09/19 03:26:00;;;;;;;10.02;9.00;;;10.30;99.90;;;;;;5072389;28;20249;-74
2021/09/19 03:28:27;;;;;;;9.00;7.90;;;10.30;99.90;;;;;;5071880;28;20220;-75
2021/09/19 03:30:53;;;;;;;9.70;8.10;;;10.30;99.90;;;;;;5072606;28;20594;-74
2021/09/19 03:33:20;;;;;;;10.00;8.50;;;10.30;99.90;;;;;;5072295;28;20227;-75
2021/09/19 03:35:47;;;;;;;9.73;8.55;;;10.30;99.90;;;;;;5072294;28;20566;-73
2021/09/19 03:38:13;;;;;;;9.15;8.35;;;10.30;99.90;;;;;;5071867;28;20223;-75
2021/09/19 03:40:40;;;;;;;11.80;8.95;;;10.20;99.90;;;;;;5072404;28;20619;-75
2021/09/19 03:43:08;;;;;;;9.93;7.47;;;10.20;99.90;;;;;;5072482;28;20541;-74
2021/09/19 03:45:35;;;;;;;8.68;7.78;;;10.20;99.90;;;;;;5072288;28;20204;-73
2021/09/19 03:48:04;;;;;;;9.45;8.45;;;10.20;99.90;;;;;;5071600;28;20224;-75
2021/09/19 03:50:31;;;;;;;8.35;7.45;;;10.10;99.90;;;;;;5118300;22;20242;-70
2021/09/19 03:52:58;;;;;;;10.43;9.30;;;10.10;99.90;;;;;;5045650;28;20217;-70
2021/09/19 03:55:25;;;;;;;9.40;8.23;;;10.10;99.90;;;;;;5052008;28;20205;-70
2021/09/19 03:57:51;;;;;;;8.82;7.93;;;10.00;99.90;;;;;;5051710;28;20231;-70
2021/09/19 04:00:20;;;;;;;10.20;8.45;;;10.00;99.90;;;;;;5051990;28;20216;-70
2021/09/19 04:02:47;;;;;;;9.90;8.55;;;10.00;99.90;;;;;;5051910;28;20204;-70
2021/09/19 04:05:14;;;;;;;9.20;7.97;;;10.00;99.90;;;;;;5051876;28;20200;-70
2021/09/19 04:07:41;;;;;;;9.02;8.10;;;10.00;99.90;;;;;;5050934;28;20897;-70
2021/09/19 04:10:09;;;;;;;8.95;7.80;;;10.10;99.90;;;;;;5052084;28;20204;-70
2021/09/19 04:12:36;;;;;;;9.93;7.78;;;10.10;99.90;;;;;;5051407;28;20278;-71
2021/09/19 04:15:03;;;;;;;7.65;6.93;;;10.00;99.90;;;;;;5051930;28;20212;-70
2021/09/19 04:17:31;;;;;;;8.52;7.72;;;10.00;99.90;;;;;;5051131;28;20584;-70
2021/09/19 04:19:58;;;;;;;9.50;7.47;;;10.00;99.90;;;;;;5051802;28;20269;-70
2021/09/19 04:22:25;;;;;;;8.75;7.85;;;10.00;99.90;;;;;;5051579;28;20197;-70
2021/09/19 04:24:52;;;;;;;9.20;8.30;;;10.00;99.90;;;;;;5051546;28;20205;-70
2021/09/19 04:27:19;;;;;;;8.90;8.00;;;9.90;99.90;;;;;;5050645;28;20228;-70
2021/09/19 04:29:45;;;;;;;9.00;7.65;;;10.00;99.90;;;;;;5051475;28;20211;-71
2021/09/19 04:32:12;;;;;;;8.27;7.38;;;9.90;99.90;;;;;;5050646;28;20217;-70
2021/09/19 04:34:40;;;;;;;9.50;7.90;;;9.90;99.90;;;;;;5051200;28;20205;-70
2021/09/19 04:37:11;;;;;;;9.88;8.88;;;9.90;99.90;;;;;;5050788;28;20208;-70
2021/09/19 04:39:38;;;;;;;8.98;8.07;;;9.90;99.90;;;;;;5051344;28;20217;-70
2021/09/19 04:42:05;;;;;;;7.90;7.03;;;10.00;99.90;;;;;;5051300;28;20573;-70
2021/09/19 04:44:31;;;;;;;8.15;7.35;;;9.90;99.90;;;;;;5050928;28;20204;-70
2021/09/19 04:46:58;;;;;;;10.68;7.63;;;9.90;99.90;;;;;;5050575;28;20201;-70
2021/09/19 04:49:25;;;;;;;9.98;8.38;;;9.90;99.90;;;;;;5050866;28;20229;-70
2021/09/19 04:51:53;;;;;;;8.10;7.38;;;9.80;99.90;;;;;;5051095;28;20223;-71
2021/09/19 04:54:20;;;;;;;8.70;7.80;;;9.80;99.90;;;;;;5050776;28;20201;-71
2021/09/19 04:56:46;;;;;;;9.30;8.40;;;9.80;99.90;;;;;;5050937;28;20200;-71
2021/09/19 04:59:13;;;;;;;7.40;6.70;;;9.80;99.90;;;;;;5050302;28;20221;-71
2021/09/19 05:01:40;;;;;;;8.70;7.80;;;9.80;99.90;;;;;;5050738;28;20634;-70
2021/09/19 05:04:07;;;;;;;9.43;7.25;;;9.80;99.90;;;;;;5050832;28;20201;-71
2021/09/19 05:06:33;;;;;;;7.97;7.18;;;9.70;99.90;;;;;;5050636;28;20209;-71
2021/09/19 05:09:02;;;;;;;10.13;7.75;;;9.80;99.90;;;;;;5050214;28;20568;-71
2021/09/19 05:11:29;;;;;;;8.07;7.28;;;9.70;99.90;;;;;;5050519;28;20567;-70
2021/09/19 05:13:56;;;;;;;8.68;7.78;;;9.70;99.90;;;;;;5050793;28;20248;-71
2021/09/19 05:16:23;;;;;;;8.32;7.55;;;9.70;99.90;;;;;;5050461;28;20212;-71
2021/09/19 05:18:49;;;;;;;8.80;7.50;;;9.70;99.90;;;;;;5050186;28;20220;-71
2021/09/19 05:21:16;;;;;;;9.90;7.35;;;9.80;99.90;;;;;;5050481;28;20257;-72
2021/09/19 05:23:43;;;;;;;10.65;8.25;;;9.80;99.90;;;;;;5050324;28;20202;-72
2021/09/19 05:26:11;;;;;;;8.98;7.88;;;9.80;99.90;;;;;;5050436;28;20197;-71
2021/09/19 05:28:37;;;;;;;9.45;7.80;;;9.80;99.90;;;;;;5049834;28;20657;-72
2021/09/19 05:31:04;;;;;;;10.02;8.10;;;9.80;99.90;;;;;;5050796;28;20296;-71
2021/09/19 05:33:31;;;;;;;8.70;7.32;;;9.80;99.90;;;;;;5050156;28;20320;-71
2021/09/19 05:35:58;;;;;;;8.90;8.00;;;9.80;99.90;;;;;;5050696;28;20201;-73
2021/09/19 05:38:25;;;;;;;8.52;7.30;;;9.80;99.90;;;;;;5049798;28;20221;-70
2021/09/19 05:40:51;;;;;;;8.00;7.20;;;9.90;99.90;;;;;;5050464;28;20205;-70
2021/09/19 05:43:19;;;;;;;7.53;6.75;;;9.90;99.90;;;;;;5051597;28;20193;-71
2021/09/19 05:45:46;;;;;;;9.75;8.40;;;9.90;99.90;;;;;;5054561;28;20212;-70
2021/09/19 05:48:13;;;;;;;8.93;8.02;;;10.10;99.90;;;;;;5053446;28;20225;-70
2021/09/19 05:50:39;;;;;;;9.77;8.40;;;10.10;99.90;;;;;;5054301;28;20216;-70
2021/09/19 05:53:06;;;;;;;8.98;8.05;;;10.10;99.90;;;;;;5054001;28;20216;-70
2021/09/19 05:55:33;;;;;;;10.60;7.40;;;10.10;99.90;;;;;;5054473;28;20208;-70
2021/09/19 05:58:00;;;;;;;8.98;7.30;;;10.10;99.90;;;;;;5053426;28;20243;-70
2021/09/19 06:00:28;;;;;;;12.80;8.57;;;10.10;99.90;;;;;;5054298;28;20209;-70
2021/09/19 06:02:55;;;;;;;9.48;8.45;;;10.20;99.90;;;;;;5051786;28;20201;-70
2021/09/19 06:05:21;;;;;;;8.55;7.65;;;10.20;99.90;;;;;;5033657;28;20194;-70
2021/09/19 06:07:48;;;;;;;7.95;7.15;;;10.20;99.90;;;;;;5030622;28;20221;-70
2021/09/19 06:10:15;;;;;;;9.43;8.40;;;10.30;99.90;;;;;;5033508;28;20194;-70
2021/09/19 06:12:42;;;;;;;9.95;8.35;;;10.30;99.90;;;;;;5033592;28;20221;-70
2021/09/19 06:15:10;;;;;;;8.48;7.18;;;10.40;99.90;;;;;;5033641;28;20210;-70
2021/09/19 06:17:38;;;;;;;9.35;8.35;;;10.40;99.90;;;;;;5033465;28;20229;-71
2021/09/19 06:20:06;;;;;;;9.93;8.93;;;10.50;99.90;;;;;;5033916;28;20204;-70
2021/09/19 06:22:32;;;;;;;10.57;8.65;;;10.50;99.90;;;;;;5033876;28;20205;-71
2021/09/19 06:24:59;;;;;;;10.40;8.65;;;10.60;99.90;;;;;;5032837;28;20221;-69
2021/09/19 06:27:26;;;;;;;8.90;7.97;;;10.70;99.90;;;;;;5030089;28;20565;-69
2021/09/19 06:29:53;;;;;;;10.23;7.18;;;10.70;99.90;;;;;;5032981;28;20225;-69
2021/09/19 06:32:20;;;;;;;8.90;8.00;;;10.80;99.90;;;;;;5033102;28;20198;-69
2021/09/19 06:34:49;;;;;;;9.25;8.25;;;10.90;99.90;;;;;;5032685;28;20198;-69
2021/09/19 06:37:15;;;;;;;9.50;8.52;;;11.00;99.90;;;;;;5032115;28;20201;-69
2021/09/19 06:39:42;;;;;;;8.95;8.05;;;11.10;99.90;;;;;;5032642;28;20213;-69
2021/09/19 06:42:09;;;;;;;9.30;8.32;;;11.20;99.90;;;;;;5032747;28;20190;-69
2021/09/19 06:44:35;;;;;;;9.65;8.75;;;11.30;99.90;;;;;;5032353;28;20190;-69
2021/09/19 06:47:02;;;;;;;10.40;8.93;;;11.40;99.90;;;;;;5030983;28;20209;-69
2021/09/19 06:49:29;;;;;;;10.27;8.02;;;11.50;99.90;;;;;;5032224;28;20217;-69
2021/09/19 06:51:57;;;;;;;9.70;8.50;;;11.60;99.90;;;;;;5032498;28;20201;-69
2021/09/19 06:54:24;;;;;;;8.37;7.57;;;11.80;99.90;;;;;;5031487;28;20221;-69
2021/09/19 06:56:51;;;;;;;8.88;8.02;;;11.80;99.90;;;;;;5032463;28;20530;-69
2021/09/19 06:59:18;;;;;;;9.60;7.47;;;11.90;99.90;;;;;;5031587;28;20725;-69
2021/09/19 07:01:45;;;;;;;8.07;7.28;;;12.00;99.90;;;;;;5032846;28;20198;-69
2021/09/19 07:04:12;;;;;;;9.00;8.10;;;12.10;99.90;;;;;;5032504;28;20595;-69
2021/09/19 07:06:38;;;;;;;8.02;7.22;;;12.20;99.90;;;;;;5032910;28;20205;-69
2021/09/19 07:09:07;;;;;;;8.67;7.87;;;12.30;99.90;;;;;;5032115;28;20217;-69
2021/09/19 07:11:33;;;;;;;10.10;7.90;;;12.50;99.90;;;;;;5032493;28;20491;-69
2021/09/19 07:14:00;;;;;;;9.20;8.17;;;12.70;99.90;;;;;;5032537;28;20503;-69
2021/09/19 07:16:27;;;;;;;8.70;7.40;;;12.90;99.90;;;;;;5032686;28;20471;-69
2021/09/19 07:18:54;;;;;;;10.67;7.90;;;13.20;99.90;;;;;;5032463;28;20480;-70
2021/09/19 07:21:22;;;;;;;8.57;7.77;;;13.40;99.90;;;;;;5032981;28;20473;-70
2021/09/19 07:23:48;;;;;;;8.60;7.70;;;13.60;99.90;;;;;;5031981;28;20476;-69
2021/09/19 07:26:17;;;;;;;9.73;7.23;;;13.80;99.90;;;;;;5032436;28;20470;-70
2021/09/19 07:28:44;;;;;;;8.30;7.53;;;14.00;99.90;;;;;;5031747;28;20992;-70
2021/09/19 07:31:11;;;;;;;7.60;6.90;;;14.20;99.90;;;;;;5031660;28;20456;-70
2021/09/19 07:33:38;;;;;;;9.00;7.93;;;14.40;99.90;;;;;;5029876;28;20484;-70
2021/09/19 07:36:06;;;;;;;7.63;6.93;;;14.60;99.90;;;;;;5030167;28;20464;-70
2021/09/19 07:38:34;;;;;;;7.17;6.50;;;14.70;99.90;;;;;;5031702;28;20480;-70
2021/09/19 07:41:00;;;;;;;8.20;7.40;;;14.90;99.90;;;;;;5030397;28;20836;-70
2021/09/19 07:43:29;;;;;;;6.63;6.03;;;15.00;99.90;;;;;;5038760;28;20456;-70
2021/09/19 07:45:56;;;;;;;8.33;7.53;;;15.20;99.90;;;;;;5050783;28;20459;-70
2021/09/19 07:48:24;;;;;;;7.57;6.87;;;15.30;99.90;;;;;;5050793;28;20494;-70
2021/09/19 07:50:51;;;;;;;8.23;6.93;;;15.50;99.90;;;;;;5051769;28;21010;-70
2021/09/19 07:53:18;;;;;;;7.73;7.00;;;15.50;99.90;;;;;;5051231;28;20496;-70
2021/09/19 07:55:45;;;;;;;7.53;6.83;;;15.60;99.90;;;;;;5051551;28;20947;-70
2021/09/19 07:58:11;;;;;;;6.77;6.13;;;15.70;99.90;;;;;;5024862;28;21493;-70
2021/09/19 08:00:40;;;;;;;7.17;6.53;;;15.90;99.90;;;;;;5047683;28;20485;-70
2021/09/19 08:03:06;;;;;;;7.80;7.00;;;16.10;99.90;;;;;;5047761;28;21487;-70
2021/09/19 08:05:33;;;;;;;6.83;6.23;;;16.10;99.90;;;;;;5048189;28;20848;-70
2021/09/19 08:08:00;;;;;;;7.70;6.23;;;16.20;99.90;;;;;;5046930;28;20506;-70
2021/09/19 08:10:26;;;;;;;6.20;5.57;;;16.40;99.90;;;;;;5047680;28;20474;-70
2021/09/19 08:12:53;;;;;;;6.07;5.57;;;16.50;99.90;;;;;;5048529;28;20474;-70
2021/09/19 08:15:21;;;;;;;6.50;5.90;;;16.70;99.90;;;;;;5048642;28;20463;-70
2021/09/19 08:17:50;;;;;;;7.13;4.97;;;16.90;99.90;;;;;;5047502;28;20486;-71
2021/09/19 08:20:18;;;;;;;6.57;5.87;;;17.00;99.90;;;;;;5048693;28;20463;-70
2021/09/19 08:22:45;;;;;;;5.63;5.13;;;17.10;99.90;;;;;;5048012;28;20467;-70
2021/09/19 08:25:13;;;;;;;5.40;4.90;;;17.20;99.90;;;;;;5026243;28;20466;-70
2021/09/19 08:27:40;;;;;;;6.00;5.43;;;17.40;99.90;;;;;;5027552;28;20491;-69
2021/09/19 08:30:09;;;;;;;5.80;5.30;;;17.40;99.90;;;;;;5027535;28;20464;-69
2021/09/19 08:32:36;;;;;;;6.23;5.70;;;17.50;99.90;;;;;;5028295;28;20551;-69
2021/09/19 08:35:05;;;;;;;5.60;5.00;;;17.60;99.90;;;;;;5027636;28;20484;-71
2021/09/19 08:37:32;;;;;;;5.63;5.13;;;17.80;99.90;;;;;;5027993;28;20507;-70
2021/09/19 08:39:59;;;;;;;6.00;5.40;;;17.90;99.90;;;;;;5027729;28;20471;-70
2021/09/19 08:42:25;;;;;;;5.37;4.87;;;18.10;99.90;;;;;;5026731;28;20964;-71
2021/09/19 08:44:52;;;;;;;5.87;5.37;;;18.10;99.90;;;;;;5027130;28;20506;-70
2021/09/19 08:47:20;;;;;;;5.30;4.77;;;18.20;99.90;;;;;;5027109;28;20461;-71
2021/09/19 08:49:46;;;;;;;7.20;6.10;;;18.30;99.90;;;;;;5024547;28;20468;-71
2021/09/19 08:52:15;;;;;;;5.70;5.20;;;18.40;99.90;;;;;;5027533;28;20483;-71
2021/09/19 08:54:41;;;;;;;6.13;5.63;;;18.50;99.90;;;;;;5027379;28;20525;-71
2021/09/19 08:57:08;;;;;;;6.60;6.00;;;18.70;99.90;;;;;;5026887;28;20463;-70
2021/09/19 08:59:50;;;;;;;7.17;5.10;;;18.80;99.90;;;;;;5026681;28;20475;-71
2021/09/19 09:02:17;;;;;;;5.87;5.30;;;18.90;99.90;;;;;;5026951;28;20460;-71
2021/09/19 09:04:45;;;;;;;6.10;5.60;;;18.90;99.90;;;;;;5026771;28;20518;-70
2021/09/19 09:07:14;;;;;;;5.73;5.23;;;19.00;99.90;;;;;;5027236;28;20461;-71
2021/09/19 09:09:54;;;;;;;7.47;5.50;;;19.10;99.90;;;;;;5024070;28;20502;-71
2021/09/19 09:12:21;;;;;;;6.93;6.10;;;19.20;99.90;;;;;;5023510;28;20475;-71
2021/09/19 09:14:51;;;;;;;5.37;4.87;;;19.20;99.90;;;;;;5022777;28;20534;-71
2021/09/19 09:17:19;;;;;;;5.43;4.93;;;19.30;99.90;;;;;;5022776;28;20464;-71
2021/09/19 09:19:50;;;;;;;6.20;5.60;;;19.40;99.90;;;;;;5022121;28;20480;-71
2021/09/19 09:22:22;;;;;;;7.97;5.07;;;19.50;99.90;;;;;;5022622;28;20468;-71
2021/09/19 09:25:08;;;;;;;6.50;5.90;;;19.60;99.90;;;;;;5022572;28;20475;-71
2021/09/19 09:27:39;;;;;;;6.00;5.40;;;19.70;99.90;;;;;;5022670;28;20484;-71
2021/09/19 09:30:13;;;;;;;6.27;5.67;;;19.70;99.90;;;;;;5022083;28;20461;-71
2021/09/19 09:32:57;;;;;;;6.37;5.77;;;19.80;99.90;;;;;;5022643;28;20471;-71
2021/09/19 09:35:32;;;;;;;6.23;5.60;;;20.00;99.90;;;;;;5024025;28;20487;-71
2021/09/19 09:38:00;;;;;;;6.17;5.50;;;20.20;99.90;;;;;;5023927;28;20541;-71
2021/09/19 09:40:30;;;;;;;6.87;6.27;;;20.30;99.90;;;;;;5021897;28;20566;-71
2021/09/19 09:43:02;;;;;;;5.90;5.30;;;20.40;99.90;;;;;;5022932;28;20499;-71
2021/09/19 09:45:30;;;;;;;5.87;5.37;;;20.50;99.90;;;;;;5019272;28;20475;-71
2021/09/19 09:47:57;;;;;;;5.80;5.30;;;20.50;99.90;;;;;;5017349;28;20487;-71
2021/09/19 09:50:30;;;;;;;5.57;5.07;;;20.70;99.90;;;;;;5038243;28;20499;-71
2021/09/19 09:53:12;;;;;;;6.13;5.60;;;20.80;99.90;;;;;;5042038;28;20480;-71
2021/09/19 09:55:45;;;;;;;6.10;5.50;;;21.10;99.90;;;;;;5035591;28;20961;-71
2021/09/19 09:58:13;;;;;;;6.20;5.60;;;21.10;99.90;;;;;;5021218;28;20480;-71
2021/09/19 10:00:41;;;;;;;5.90;5.40;;;21.30;99.90;;;;;;5021686;28;20464;-71
2021/09/19 10:03:08;;;;;;;7.37;6.00;;;21.30;99.90;;;;;;5022142;28;21699;-71
2021/09/19 10:05:36;;;;;;;5.20;4.70;;;21.40;99.90;;;;;;5025392;28;20464;-71
2021/09/19 10:08:04;;;;;;;11.13;5.27;;;21.60;99.90;;;;;;5025816;28;20481;-71
2021/09/19 10:10:38;;;;;;;6.50;5.93;;;21.70;99.90;;;;;;5027262;28;20558;-70
2021/09/19 10:13:07;;;;;;;5.63;5.13;;;21.80;99.90;;;;;;5026796;28;20495;-72
2021/09/19 10:15:34;;;;;;;6.47;5.90;;;21.90;99.90;;;;;;5027473;28;20646;-71
2021/09/19 10:18:01;;;;;;;6.17;5.67;;;22.10;99.90;;;;;;5026005;28;20487;-71
2021/09/19 10:20:31;;;;;;;5.90;5.40;;;22.10;99.90;;;;;;5026955;28;20464;-71
2021/09/19 10:23:04;;;;;;;6.00;5.50;;;22.10;99.90;;;;;;5025573;28;20961;-71
2021/09/19 10:25:37;;;;;;;5.20;4.80;;;22.30;99.90;;;;;;5027048;28;20963;-71
2021/09/19 10:28:24;;;;;;;5.17;4.70;;;22.40;99.90;;;;;;5022980;28;20487;-71
2021/09/19 10:31:25;;;;;;;5.70;5.30;;;22.50;99.90;;;;;;5025966;28;20952;-71
2021/09/19 10:33:55;;;;;;;5.97;5.23;;;22.60;99.90;;;;;;4957905;28;20515;-71
2021/09/19 10:36:29;;;;;;;5.67;5.07;;;22.80;99.90;;;;;;5016845;28;20468;-71
2021/09/19 10:39:16;;;;;;;5.37;4.87;;;22.90;99.90;;;;;;5029581;28;20468;-71
2021/09/19 10:42:07;;;;;;;5.63;5.17;;;23.10;99.90;;;;;;5027089;28;21007;-71
2021/09/19 10:44:51;;;;;;;6.00;5.40;;;23.20;99.90;;;;;;5029785;28;20990;-71
2021/09/19 10:47:30;;;;;;;6.37;5.60;;;23.30;99.90;;;;;;5028846;28;20488;-71
2021/09/19 10:50:25;;;;;;;6.20;5.63;;;23.50;99.90;;;;;;5028660;28;20953;-71
2021/09/19 10:52:56;;;;;;;6.27;5.67;;;23.60;99.90;;;;;;5028369;28;20490;-71
2021/09/19 10:55:27;;;;;;;5.80;5.30;;;23.80;99.90;;;;;;5026458;28;20526;-71
2021/09/19 10:57:56;;;;;;;5.50;5.00;;;23.90;99.90;;;;;;5027913;28;21005;-71
2021/09/19 11:00:25;;;;;;;5.90;5.30;;;24.00;99.90;;;;;;5026282;28;20471;-71
2021/09/19 11:03:07;;;;;;;5.60;5.10;;;24.20;99.90;;;;;;5028409;28;20462;-71
2021/09/19 11:05:36;;;;;;;5.00;4.50;;;24.40;99.90;;;;;;5029684;28;20460;-72
2021/09/19 11:08:14;;;;;;;5.43;4.93;;;24.60;99.90;;;;;;5027657;28;20491;-71
2021/09/19 11:11:09;;;;;;;5.00;4.60;;;24.70;99.90;;;;;;5100376;22;20471;-66
2021/09/19 11:13:41;;;;;;;5.50;5.00;;;24.70;99.90;;;;;;5025703;28;20485;-66
2021/09/19 11:16:31;;;;;;;5.27;4.77;;;24.80;99.90;;;;;;5020452;28;20457;-67
2021/09/19 11:19:01;;;;;;;4.30;4.00;;;24.90;99.90;;;;;;4994666;28;21020;-67
2021/09/19 11:21:37;;;;;;;5.40;4.90;;;24.90;99.90;;;;;;4990677;28;20462;-67
2021/09/19 11:24:06;;;;;;;5.33;4.53;;;25.00;99.90;;;;;;4990581;28;21497;-67
2021/09/19 11:26:36;;;;;;;5.27;4.80;;;25.00;99.90;;;;;;4990897;28;20470;-67
2021/09/19 11:29:05;;;;;;;5.20;4.70;;;25.00;99.90;;;;;;4990012;28;20474;-66
2021/09/19 11:31:33;;;;;;;4.77;4.37;;;25.00;99.90;;;;;;4990526;28;20469;-67
2021/09/19 11:34:00;;;;;;;5.50;4.93;;;25.10;99.90;;;;;;4990697;28;21206;-67
2021/09/19 11:36:28;;;;;;;5.03;4.63;;;25.20;99.90;;;;;;4990984;28;20850;-67
2021/09/19 11:38:55;;;;;;;4.90;4.43;;;25.40;99.90;;;;;;4993002;28;20483;-67
2021/09/19 11:41:24;;;;;;;5.20;4.70;;;25.50;99.90;;;;;;5009712;28;20465;-66
2021/09/19 11:43:52;;;;;;;5.40;4.20;;;25.60;99.90;;;;;;5010075;28;20527;-66
2021/09/19 11:46:21;;;;;;;4.90;4.50;;;25.50;99.90;;;;;;5010733;28;20466;-67
2021/09/19 11:48:49;;;;;;;4.50;4.10;;;25.40;99.90;;;;;;5009456;28;20489;-67
2021/09/19 11:51:18;;;;;;;5.30;4.80;;;25.30;99.90;;;;;;5009998;28;20469;-67
2021/09/19 11:53:46;;;;;;;5.43;4.83;;;25.20;99.90;;;;;;5010163;28;20472;-67
2021/09/19 11:56:15;;;;;;;4.60;4.20;;;25.10;99.90;;;;;;5010143;28;20563;-67
2021/09/19 11:58:42;;;;;;;5.53;4.87;;;24.80;99.90;;;;;;5008481;28;20488;-66
2021/09/19 12:01:08;;;;;;;4.80;4.40;;;24.60;99.90;;;;;;5009257;28;20457;-66
2021/09/19 12:03:35;;;;;;;5.30;4.80;;;24.60;99.90;;;;;;5009773;28;20466;-66
2021/09/19 12:06:04;;;;;;;4.57;3.77;;;24.80;99.90;;;;;;5009723;28;20480;-67
2021/09/19 12:08:35;;;;;;;4.93;4.43;;;25.00;99.90;;;;;;5009476;28;20492;-67
2021/09/19 12:11:04;;;;;;;4.87;4.43;;;24.70;99.90;;;;;;5007923;28;20595;-67
2021/09/19 12:13:33;;;;;;;4.70;4.30;;;24.00;99.90;;;;;;5009023;28;20556;-67
2021/09/19 12:16:03;;;;;;;5.87;4.33;;;23.60;99.90;;;;;;5009655;28;20519;-67
2021/09/19 12:18:31;;;;;;;4.80;4.30;;;23.60;99.90;;;;;;5008786;28;20933;-67
2021/09/19 12:21:00;;;;;;;4.60;4.07;;;23.70;99.90;;;;;;5009090;28;20469;-67
2021/09/19 12:23:39;;;;;;;4.60;4.20;;;23.90;99.90;;;;;;5008833;28;20477;-67
2021/09/19 12:26:06;;;;;;;4.80;4.40;;;23.70;99.90;;;;;;5009823;28;20465;-67
2021/09/19 12:28:37;;;;;;;4.77;4.37;;;23.50;99.90;;;;;;5008787;28;20488;-67
2021/09/19 12:31:06;;;;;;;4.90;4.43;;;23.70;99.90;;;;;;5008608;28;20476;-67
2021/09/19 12:33:33;;;;;;;4.27;3.90;;;23.90;99.90;;;;;;5009091;28;21052;-67
2021/09/19 12:36:00;;;;;;;5.40;4.90;;;23.90;99.90;;;;;;5008831;28;20492;-67
2021/09/19 12:38:28;;;;;;;4.13;3.83;;;24.30;99.90;;;;;;5008458;28;20488;-68
2021/09/19 12:41:03;;;;;;;4.37;4.07;;;24.60;99.90;;;;;;5009055;28;20553;-68
2021/09/19 12:43:30;;;;;;;4.30;3.90;;;25.10;99.90;;;;;;5008629;28;20471;-68
2021/09/19 12:45:57;;;;;;;4.37;3.97;;;25.50;99.90;;;;;;5009221;28;20927;-68
2021/09/19 12:48:25;;;;;;;4.37;3.97;;;25.60;99.90;;;;;;5007762;28;20858;-68
2021/09/19 12:50:57;;;;;;;4.30;4.00;;;25.70;99.90;;;;;;5009003;28;20461;-67
2021/09/19 12:53:25;;;;;;;4.87;4.00;;;25.70;99.90;;;;;;5007694;28;20465;-67